sensor_id;sensor_type;location;lat;lon;timestamp;noise_LAeq;noise_LA_min;noise_LA_max;noise_LA01;noise_LA95
67300;Laerm;57658;51.436;5.980;2024-01-11T00:00:02;83.60;60.25;91.34;;
67300;Laerm;57658;51.436;5.980;2024-01-11T00:00:13;59.23;47.63;67.76;;
67300;Laerm;57658;51.436;5.980;2024-01-11T00:00:23;47.73;41.98;56.07;;
67300;Laerm;57658;51.436;5.980;2024-01-11T00:00:33;44.56;39.76;50.01;;
67300;Laerm;57658;51.436;5.980;2024-01-11T00:00:44;42.42;39.04;46.07;;
67300;Laerm;57658;51.436;5.980;2024-01-11T00:00:54;40.10;37.28;44.67;;
67300;Laerm;57658;51.436;5.980;2024-01-11T00:01:08;39.26;34.82;45.95;;
67300;Laerm;57658;51.436;5.980;2024-01-11T00:01:18;37.63;34.05;41.19;;
67300;Laerm;57658;51.436;5.980;2024-01-11T00:01:28;35.08;32.37;38.27;;
67300;Laerm;57658;51.436;5.980;2024-01-11T00:01:38;34.09;30.68;38.36;;
67300;Laerm;57658;51.436;5.980;2024-01-11T00:01:49;32.15;30.08;34.17;;
67300;Laerm;57658;51.436;5.980;2024-01-11T00:01:59;31.63;30.15;33.68;;
67300;Laerm;57658;51.436;5.980;2024-01-11T00:02:09;31.68;29.96;33.21;;
67300;Laerm;57658;51.436;5.980;2024-01-11T00:02:19;32.20;30.13;40.14;;
67300;Laerm;57658;51.436;5.980;2024-01-11T00:02:30;31.62;29.78;33.58;;
67300;Laerm;57658;51.436;5.980;2024-01-11T00:02:40;32.31;30.46;38.65;;
67300;Laerm;57658;51.436;5.980;2024-01-11T00:02:50;32.59;30.00;34.94;;
67300;Laerm;57658;51.436;5.980;2024-01-11T00:03:01;32.90;30.82;35.22;;
67300;Laerm;57658;51.436;5.980;2024-01-11T00:03:11;32.60;29.81;35.58;;
67300;Laerm;57658;51.436;5.980;2024-01-11T00:03:21;32.05;30.06;36.89;;
67300;Laerm;57658;51.436;5.980;2024-01-11T00:03:32;31.44;29.81;33.31;;
67300;Laerm;57658;51.436;5.980;2024-01-11T00:03:42;33.42;30.07;47.01;;
67300;Laerm;57658;51.436;5.980;2024-01-11T00:03:52;31.32;29.28;33.20;;
67300;Laerm;57658;51.436;5.980;2024-01-11T00:04:03;32.03;29.60;40.99;;
67300;Laerm;57658;51.436;5.980;2024-01-11T00:04:13;32.00;29.47;36.67;;
67300;Laerm;57658;51.436;5.980;2024-01-11T00:04:23;31.20;29.67;33.18;;
67300;Laerm;57658;51.436;5.980;2024-01-11T00:04:34;31.13;29.32;33.97;;
67300;Laerm;57658;51.436;5.980;2024-01-11T00:04:44;31.29;29.19;38.08;;
67300;Laerm;57658;51.436;5.980;2024-01-11T00:04:54;33.33;29.50;45.46;;
67300;Laerm;57658;51.436;5.980;2024-01-11T00:05:05;31.19;29.55;32.92;;
67300;Laerm;57658;51.436;5.980;2024-01-11T00:05:16;31.22;29.34;33.17;;
67300;Laerm;57658;51.436;5.980;2024-01-11T00:05:26;31.31;29.25;34.23;;
67300;Laerm;57658;51.436;5.980;2024-01-11T00:05:37;31.94;29.81;37.43;;
67300;Laerm;57658;51.436;5.980;2024-01-11T00:05:47;31.46;29.65;33.65;;
67300;Laerm;57658;51.436;5.980;2024-01-11T00:05:57;31.59;30.00;34.64;;
67300;Laerm;57658;51.436;5.980;2024-01-11T00:06:07;31.33;29.74;33.65;;
67300;Laerm;57658;51.436;5.980;2024-01-11T00:06:18;32.31;30.11;38.19;;
67300;Laerm;57658;51.436;5.980;2024-01-11T00:06:28;31.37;29.73;32.83;;
67300;Laerm;57658;51.436;5.980;2024-01-11T00:06:42;31.94;29.90;35.83;;
67300;Laerm;57658;51.436;5.980;2024-01-11T00:06:52;31.98;30.03;36.64;;
67300;Laerm;57658;51.436;5.980;2024-01-11T00:07:02;31.54;29.62;34.83;;
67300;Laerm;57658;51.436;5.980;2024-01-11T00:07:13;31.19;29.61;33.37;;
67300;Laerm;57658;51.436;5.980;2024-01-11T00:07:23;31.43;29.78;34.01;;
67300;Laerm;57658;51.436;5.980;2024-01-11T00:07:34;32.05;29.95;38.22;;
67300;Laerm;57658;51.436;5.980;2024-01-11T00:07:44;32.90;29.81;37.39;;
67300;Laerm;57658;51.436;5.980;2024-01-11T00:07:54;32.10;29.89;36.84;;
67300;Laerm;57658;51.436;5.980;2024-01-11T00:08:04;32.15;30.09;38.63;;
67300;Laerm;57658;51.436;5.980;2024-01-11T00:08:15;31.68;29.71;34.73;;
67300;Laerm;57658;51.436;5.980;2024-01-11T00:08:25;31.32;29.86;33.73;;
67300;Laerm;57658;51.436;5.980;2024-01-11T00:08:35;31.05;29.10;33.21;;
67300;Laerm;57658;51.436;5.980;2024-01-11T00:08:46;31.31;29.71;33.46;;
67300;Laerm;57658;51.436;5.980;2024-01-11T00:08:56;31.03;29.17;34.13;;
67300;Laerm;57658;51.436;5.980;2024-01-11T00:09:06;31.20;29.34;33.82;;
67300;Laerm;57658;51.436;5.980;2024-01-11T00:09:16;31.38;29.96;32.98;;
67300;Laerm;57658;51.436;5.980;2024-01-11T00:09:27;31.57;29.83;37.07;;
67300;Laerm;57658;51.436;5.980;2024-01-11T00:09:43;31.56;29.61;35.39;;
67300;Laerm;57658;51.436;5.980;2024-01-11T00:09:54;31.96;29.97;34.75;;
67300;Laerm;57658;51.436;5.980;2024-01-11T00:10:04;33.32;30.10;36.97;;
67300;Laerm;57658;51.436;5.980;2024-01-11T00:10:15;33.64;30.43;41.74;;
67300;Laerm;57658;51.436;5.980;2024-01-11T00:10:26;33.56;30.75;39.66;;
67300;Laerm;57658;51.436;5.980;2024-01-11T00:10:36;74.38;32.33;79.90;;
67300;Laerm;57658;51.436;5.980;2024-01-11T00:10:46;71.64;56.52;78.85;;
67300;Laerm;57658;51.436;5.980;2024-01-11T00:10:56;60.59;55.75;62.85;;
67300;Laerm;57658;51.436;5.980;2024-01-11T00:11:07;74.75;56.43;86.27;;
67300;Laerm;57658;51.436;5.980;2024-01-11T00:11:17;56.57;41.10;63.15;;
67300;Laerm;57658;51.436;5.980;2024-01-11T00:11:27;39.65;35.72;50.08;;
67300;Laerm;57658;51.436;5.980;2024-01-11T00:11:38;36.24;33.26;39.83;;
67300;Laerm;57658;51.436;5.980;2024-01-11T00:11:48;38.17;34.59;40.82;;
67300;Laerm;57658;51.436;5.980;2024-01-11T00:11:59;37.46;33.44;40.04;;
67300;Laerm;57658;51.436;5.980;2024-01-11T00:12:09;34.97;30.84;39.72;;
67300;Laerm;57658;51.436;5.980;2024-01-11T00:12:19;33.77;31.62;37.13;;
67300;Laerm;57658;51.436;5.980;2024-01-11T00:12:29;33.09;31.22;35.94;;
67300;Laerm;57658;51.436;5.980;2024-01-11T00:12:41;33.41;31.38;37.82;;
67300;Laerm;57658;51.436;5.980;2024-01-11T00:12:51;32.23;30.33;34.14;;
67300;Laerm;57658;51.436;5.980;2024-01-11T00:13:02;32.88;30.70;36.08;;
67300;Laerm;57658;51.436;5.980;2024-01-11T00:13:12;32.66;30.63;35.31;;
67300;Laerm;57658;51.436;5.980;2024-01-11T00:13:23;32.91;30.90;35.22;;
67300;Laerm;57658;51.436;5.980;2024-01-11T00:13:33;32.19;30.37;34.62;;
67300;Laerm;57658;51.436;5.980;2024-01-11T00:13:43;32.28;30.55;34.71;;
67300;Laerm;57658;51.436;5.980;2024-01-11T00:13:53;32.39;30.43;35.57;;
67300;Laerm;57658;51.436;5.980;2024-01-11T00:14:04;34.25;30.74;44.69;;
67300;Laerm;57658;51.436;5.980;2024-01-11T00:14:14;34.63;30.23;45.52;;
67300;Laerm;57658;51.436;5.980;2024-01-11T00:14:24;32.62;30.05;37.17;;
67300;Laerm;57658;51.436;5.980;2024-01-11T00:14:35;31.81;30.01;35.92;;
67300;Laerm;57658;51.436;5.980;2024-01-11T00:14:45;31.94;30.00;37.76;;
67300;Laerm;57658;51.436;5.980;2024-01-11T00:14:56;32.20;29.97;34.80;;
67300;Laerm;57658;51.436;5.980;2024-01-11T00:15:06;32.50;30.72;34.96;;
67300;Laerm;57658;51.436;5.980;2024-01-11T00:15:16;35.83;32.19;40.76;;
67300;Laerm;57658;51.436;5.980;2024-01-11T00:15:27;42.40;38.67;46.83;;
67300;Laerm;57658;51.436;5.980;2024-01-11T00:15:37;50.57;44.18;55.69;;
67300;Laerm;57658;51.436;5.980;2024-01-11T00:15:47;60.63;54.78;67.35;;
67300;Laerm;57658;51.436;5.980;2024-01-11T00:15:57;71.13;55.03;78.14;;
67300;Laerm;57658;51.436;5.980;2024-01-11T00:16:08;51.91;45.57;56.47;;
67300;Laerm;57658;51.436;5.980;2024-01-11T00:16:18;44.57;38.59;48.33;;
67300;Laerm;57658;51.436;5.980;2024-01-11T00:16:28;38.44;35.50;41.50;;
67300;Laerm;57658;51.436;5.980;2024-01-11T00:16:38;35.76;33.05;39.30;;
67300;Laerm;57658;51.436;5.980;2024-01-11T00:16:49;35.98;32.75;38.77;;
67300;Laerm;57658;51.436;5.980;2024-01-11T00:16:59;39.00;33.78;43.37;;
67300;Laerm;57658;51.436;5.980;2024-01-11T00:17:10;34.66;32.45;37.09;;
67300;Laerm;57658;51.436;5.980;2024-01-11T00:17:20;36.43;33.15;40.75;;
67300;Laerm;57658;51.436;5.980;2024-01-11T00:17:31;36.18;33.29;40.58;;
67300;Laerm;57658;51.436;5.980;2024-01-11T00:17:41;39.64;35.93;43.84;;
67300;Laerm;57658;51.436;5.980;2024-01-11T00:17:51;48.29;41.90;53.33;;
67300;Laerm;57658;51.436;5.980;2024-01-11T00:18:02;44.99;39.57;49.39;;
67300;Laerm;57658;51.436;5.980;2024-01-11T00:18:12;37.78;33.48;42.91;;
67300;Laerm;57658;51.436;5.980;2024-01-11T00:18:22;33.72;31.72;35.54;;
67300;Laerm;57658;51.436;5.980;2024-01-11T00:18:33;33.26;31.21;35.76;;
67300;Laerm;57658;51.436;5.980;2024-01-11T00:18:43;33.60;30.79;36.96;;
67300;Laerm;57658;51.436;5.980;2024-01-11T00:18:55;31.85;29.92;34.09;;
67300;Laerm;57658;51.436;5.980;2024-01-11T00:19:05;31.53;29.98;33.60;;
67300;Laerm;57658;51.436;5.980;2024-01-11T00:19:15;31.35;30.02;32.99;;
67300;Laerm;57658;51.436;5.980;2024-01-11T00:19:25;31.46;29.80;33.76;;
67300;Laerm;57658;51.436;5.980;2024-01-11T00:19:36;31.43;29.41;33.60;;
67300;Laerm;57658;51.436;5.980;2024-01-11T00:19:46;31.60;29.33;33.86;;
67300;Laerm;57658;51.436;5.980;2024-01-11T00:19:56;31.58;29.63;35.06;;
67300;Laerm;57658;51.436;5.980;2024-01-11T00:20:06;73.19;29.85;79.51;;
67300;Laerm;57658;51.436;5.980;2024-01-11T00:20:17;71.87;56.27;79.42;;
67300;Laerm;57658;51.436;5.980;2024-01-11T00:20:27;61.12;56.09;65.62;;
67300;Laerm;57658;51.436;5.980;2024-01-11T00:20:37;77.89;59.05;85.93;;
67300;Laerm;57658;51.436;5.980;2024-01-11T00:20:48;54.69;37.48;62.38;;
67300;Laerm;57658;51.436;5.980;2024-01-11T00:20:58;37.77;34.14;48.40;;
67300;Laerm;57658;51.436;5.980;2024-01-11T00:21:08;35.19;32.78;37.61;;
67300;Laerm;57658;51.436;5.980;2024-01-11T00:21:18;36.52;32.54;41.51;;
67300;Laerm;57658;51.436;5.980;2024-01-11T00:21:29;34.30;30.98;38.85;;
67300;Laerm;57658;51.436;5.980;2024-01-11T00:21:39;34.18;30.48;40.58;;
67300;Laerm;57658;51.436;5.980;2024-01-11T00:21:49;31.64;29.87;33.71;;
67300;Laerm;57658;51.436;5.980;2024-01-11T00:21:59;31.87;30.04;33.92;;
67300;Laerm;57658;51.436;5.980;2024-01-11T00:22:10;32.19;30.06;33.82;;
67300;Laerm;57658;51.436;5.980;2024-01-11T00:22:20;31.78;29.94;33.72;;
67300;Laerm;57658;51.436;5.980;2024-01-11T00:22:30;31.67;29.77;33.57;;
67300;Laerm;57658;51.436;5.980;2024-01-11T00:22:41;32.10;30.18;35.12;;
67300;Laerm;57658;51.436;5.980;2024-01-11T00:22:51;32.21;29.97;34.27;;
67300;Laerm;57658;51.436;5.980;2024-01-11T00:23:01;31.30;29.37;33.26;;
67300;Laerm;57658;51.436;5.980;2024-01-11T00:23:11;31.38;28.89;33.14;;
67300;Laerm;57658;51.436;5.980;2024-01-11T00:23:22;31.56;29.76;33.66;;
67300;Laerm;57658;51.436;5.980;2024-01-11T00:23:33;31.54;30.17;33.05;;
67300;Laerm;57658;51.436;5.980;2024-01-11T00:23:43;31.40;30.04;33.46;;
67300;Laerm;57658;51.436;5.980;2024-01-11T00:23:53;31.67;29.57;34.30;;
67300;Laerm;57658;51.436;5.980;2024-01-11T00:24:04;31.59;29.85;33.13;;
67300;Laerm;57658;51.436;5.980;2024-01-11T00:24:14;31.48;29.80;33.03;;
67300;Laerm;57658;51.436;5.980;2024-01-11T00:24:24;31.37;29.41;33.63;;
67300;Laerm;57658;51.436;5.980;2024-01-11T00:24:35;31.47;29.62;33.33;;
67300;Laerm;57658;51.436;5.980;2024-01-11T00:24:45;31.35;29.77;34.02;;
67300;Laerm;57658;51.436;5.980;2024-01-11T00:24:55;31.42;29.57;34.45;;
67300;Laerm;57658;51.436;5.980;2024-01-11T00:25:05;31.21;29.69;32.83;;
67300;Laerm;57658;51.436;5.980;2024-01-11T00:25:16;31.19;29.60;32.92;;
67300;Laerm;57658;51.436;5.980;2024-01-11T00:25:27;31.12;29.54;33.14;;
67300;Laerm;57658;51.436;5.980;2024-01-11T00:25:37;31.17;29.48;34.14;;
67300;Laerm;57658;51.436;5.980;2024-01-11T00:25:47;31.21;29.55;33.04;;
67300;Laerm;57658;51.436;5.980;2024-01-11T00:25:57;31.35;29.73;33.28;;
67300;Laerm;57658;51.436;5.980;2024-01-11T00:26:12;31.50;29.65;33.63;;
67300;Laerm;57658;51.436;5.980;2024-01-11T00:26:22;31.93;30.08;36.07;;
67300;Laerm;57658;51.436;5.980;2024-01-11T00:26:32;31.47;29.85;33.17;;
67300;Laerm;57658;51.436;5.980;2024-01-11T00:26:42;31.54;29.95;34.38;;
67300;Laerm;57658;51.436;5.980;2024-01-11T00:26:53;31.22;29.45;33.53;;
67300;Laerm;57658;51.436;5.980;2024-01-11T00:27:03;31.29;29.86;32.74;;
67300;Laerm;57658;51.436;5.980;2024-01-11T00:27:14;31.31;29.48;33.06;;
67300;Laerm;57658;51.436;5.980;2024-01-11T00:27:24;32.02;29.99;34.07;;
67300;Laerm;57658;51.436;5.980;2024-01-11T00:27:34;31.40;29.17;32.88;;
67300;Laerm;57658;51.436;5.980;2024-01-11T00:27:44;31.17;29.54;33.51;;
67300;Laerm;57658;51.436;5.980;2024-01-11T00:27:55;31.43;29.84;33.05;;
67300;Laerm;57658;51.436;5.980;2024-01-11T00:28:05;31.48;29.68;33.28;;
67300;Laerm;57658;51.436;5.980;2024-01-11T00:28:15;31.50;29.79;33.64;;
67300;Laerm;57658;51.436;5.980;2024-01-11T00:28:25;31.82;30.49;33.56;;
67300;Laerm;57658;51.436;5.980;2024-01-11T00:28:36;34.74;30.52;40.36;;
67300;Laerm;57658;51.436;5.980;2024-01-11T00:28:46;50.88;36.84;59.61;;
67300;Laerm;57658;51.436;5.980;2024-01-11T00:28:56;64.64;53.78;71.96;;
67300;Laerm;57658;51.436;5.980;2024-01-11T00:29:07;48.43;36.34;57.84;;
67300;Laerm;57658;51.436;5.980;2024-01-11T00:29:17;66.40;30.37;78.32;;
67300;Laerm;57658;51.436;5.980;2024-01-11T00:29:28;74.84;68.70;80.69;;
67300;Laerm;57658;51.436;5.980;2024-01-11T00:29:38;68.25;56.86;79.88;;
67300;Laerm;57658;51.436;5.980;2024-01-11T00:29:48;60.33;56.70;61.97;;
67300;Laerm;57658;51.436;5.980;2024-01-11T00:29:59;59.97;55.58;61.44;;
67300;Laerm;57658;51.436;5.980;2024-01-11T00:30:09;68.31;55.53;82.56;;
67300;Laerm;57658;51.436;5.980;2024-01-11T00:30:19;84.32;78.52;90.77;;
67300;Laerm;57658;51.436;5.980;2024-01-11T00:30:30;85.56;79.30;91.81;;
67300;Laerm;57658;51.436;5.980;2024-01-11T00:30:40;82.33;63.44;88.67;;
67300;Laerm;57658;51.436;5.980;2024-01-11T00:30:50;61.16;52.16;66.54;;
67300;Laerm;57658;51.436;5.980;2024-01-11T00:31:00;52.14;46.87;60.02;;
67300;Laerm;57658;51.436;5.980;2024-01-11T00:31:11;51.31;42.44;63.29;;
67300;Laerm;57658;51.436;5.980;2024-01-11T00:31:21;43.82;39.43;47.61;;
67300;Laerm;57658;51.436;5.980;2024-01-11T00:31:31;38.91;35.34;41.84;;
67300;Laerm;57658;51.436;5.980;2024-01-11T00:31:41;39.53;36.50;43.39;;
67300;Laerm;57658;51.436;5.980;2024-01-11T00:31:52;41.37;37.37;45.26;;
67300;Laerm;57658;51.436;5.980;2024-01-11T00:32:02;39.85;35.36;43.42;;
67300;Laerm;57658;51.436;5.980;2024-01-11T00:32:12;39.81;36.21;43.16;;
67300;Laerm;57658;51.436;5.980;2024-01-11T00:32:23;37.86;33.37;42.46;;
67300;Laerm;57658;51.436;5.980;2024-01-11T00:32:33;34.53;31.63;37.98;;
67300;Laerm;57658;51.436;5.980;2024-01-11T00:32:43;32.84;30.95;34.68;;
67300;Laerm;57658;51.436;5.980;2024-01-11T00:32:54;32.94;30.77;37.31;;
67300;Laerm;57658;51.436;5.980;2024-01-11T00:33:05;32.16;30.40;34.34;;
67300;Laerm;57658;51.436;5.980;2024-01-11T00:33:16;32.31;30.54;34.18;;
67300;Laerm;57658;51.436;5.980;2024-01-11T00:33:26;32.94;31.00;35.07;;
67300;Laerm;57658;51.436;5.980;2024-01-11T00:33:37;33.04;31.21;34.92;;
67300;Laerm;57658;51.436;5.980;2024-01-11T00:33:47;33.33;31.26;35.22;;
67300;Laerm;57658;51.436;5.980;2024-01-11T00:33:57;33.67;31.52;35.48;;
67300;Laerm;57658;51.436;5.980;2024-01-11T00:34:08;32.96;30.87;35.37;;
67300;Laerm;57658;51.436;5.980;2024-01-11T00:34:18;32.40;30.13;34.67;;
67300;Laerm;57658;51.436;5.980;2024-01-11T00:34:29;31.76;30.04;34.29;;
67300;Laerm;57658;51.436;5.980;2024-01-11T00:34:39;31.71;29.70;33.49;;
67300;Laerm;57658;51.436;5.980;2024-01-11T00:34:49;31.60;30.20;34.98;;
67300;Laerm;57658;51.436;5.980;2024-01-11T00:34:59;31.49;29.91;33.71;;
67300;Laerm;57658;51.436;5.980;2024-01-11T00:35:10;31.31;29.63;33.34;;
67300;Laerm;57658;51.436;5.980;2024-01-11T00:35:20;31.08;29.38;32.54;;
67300;Laerm;57658;51.436;5.980;2024-01-11T00:35:30;31.38;29.83;33.20;;
67300;Laerm;57658;51.436;5.980;2024-01-11T00:35:41;31.38;29.84;33.35;;
67300;Laerm;57658;51.436;5.980;2024-01-11T00:35:51;31.29;29.72;34.42;;
67300;Laerm;57658;51.436;5.980;2024-01-11T00:36:01;31.44;29.49;35.93;;
67300;Laerm;57658;51.436;5.980;2024-01-11T00:36:16;31.58;29.68;34.78;;
67300;Laerm;57658;51.436;5.980;2024-01-11T00:36:27;31.03;29.11;32.66;;
67300;Laerm;57658;51.436;5.980;2024-01-11T00:36:38;31.24;29.47;33.42;;
67300;Laerm;57658;51.436;5.980;2024-01-11T00:36:48;31.24;29.90;33.07;;
67300;Laerm;57658;51.436;5.980;2024-01-11T00:36:59;31.02;29.51;32.69;;
67300;Laerm;57658;51.436;5.980;2024-01-11T00:37:09;31.00;29.52;32.57;;
67300;Laerm;57658;51.436;5.980;2024-01-11T00:37:19;31.19;29.67;33.54;;
67300;Laerm;57658;51.436;5.980;2024-01-11T00:37:29;31.34;29.69;33.32;;
67300;Laerm;57658;51.436;5.980;2024-01-11T00:37:40;31.28;29.79;34.04;;
67300;Laerm;57658;51.436;5.980;2024-01-11T00:37:51;72.74;29.19;79.36;;
67300;Laerm;57658;51.436;5.980;2024-01-11T00:38:01;72.67;56.73;80.46;;
67300;Laerm;57658;51.436;5.980;2024-01-11T00:38:11;60.73;56.88;62.60;;
67300;Laerm;57658;51.436;5.980;2024-01-11T00:38:21;60.73;56.18;62.64;;
67300;Laerm;57658;51.436;5.980;2024-01-11T00:38:32;63.83;57.65;74.55;;
67300;Laerm;57658;51.436;5.980;2024-01-11T00:38:42;83.85;74.22;87.10;;
67300;Laerm;57658;51.436;5.980;2024-01-11T00:38:52;84.75;81.13;91.67;;
67300;Laerm;57658;51.436;5.980;2024-01-11T00:39:03;78.18;59.12;85.24;;
67300;Laerm;57658;51.436;5.980;2024-01-11T00:39:13;55.73;48.66;63.36;;
67300;Laerm;57658;51.436;5.980;2024-01-11T00:39:23;49.16;42.50;64.47;;
67300;Laerm;57658;51.436;5.980;2024-01-11T00:39:33;42.36;37.58;50.78;;
67300;Laerm;57658;51.436;5.980;2024-01-11T00:39:44;38.99;35.43;44.17;;
67300;Laerm;57658;51.436;5.980;2024-01-11T00:39:54;38.38;34.69;41.92;;
67300;Laerm;57658;51.436;5.980;2024-01-11T00:40:04;37.45;34.96;40.53;;
67300;Laerm;57658;51.436;5.980;2024-01-11T00:40:15;37.18;33.96;40.67;;
67300;Laerm;57658;51.436;5.980;2024-01-11T00:40:26;37.77;34.16;42.36;;
67300;Laerm;57658;51.436;5.980;2024-01-11T00:40:36;34.66;32.02;39.76;;
67300;Laerm;57658;51.436;5.980;2024-01-11T00:40:46;32.96;31.16;36.50;;
67300;Laerm;57658;51.436;5.980;2024-01-11T00:40:57;32.99;31.26;35.04;;
67300;Laerm;57658;51.436;5.980;2024-01-11T00:41:07;32.50;30.10;35.14;;
67300;Laerm;57658;51.436;5.980;2024-01-11T00:41:17;31.66;29.70;33.15;;
67300;Laerm;57658;51.436;5.980;2024-01-11T00:41:28;31.61;30.03;33.08;;
67300;Laerm;57658;51.436;5.980;2024-01-11T00:41:38;31.49;29.89;33.26;;
67300;Laerm;57658;51.436;5.980;2024-01-11T00:41:48;31.57;30.15;33.18;;
67300;Laerm;57658;51.436;5.980;2024-01-11T00:41:58;31.66;30.21;33.33;;
67300;Laerm;57658;51.436;5.980;2024-01-11T00:42:09;31.93;30.10;36.30;;
67300;Laerm;57658;51.436;5.980;2024-01-11T00:42:19;33.64;30.48;42.99;;
67300;Laerm;57658;51.436;5.980;2024-01-11T00:42:29;34.73;31.00;42.61;;
67300;Laerm;57658;51.436;5.980;2024-01-11T00:42:39;31.51;29.72;33.03;;
67300;Laerm;57658;51.436;5.980;2024-01-11T00:42:50;31.56;30.00;33.36;;
67300;Laerm;57658;51.436;5.980;2024-01-11T00:43:00;31.24;29.54;32.76;;
67300;Laerm;57658;51.436;5.980;2024-01-11T00:43:10;31.14;29.78;32.67;;
67300;Laerm;57658;51.436;5.980;2024-01-11T00:43:21;31.28;29.59;36.51;;
67300;Laerm;57658;51.436;5.980;2024-01-11T00:43:31;31.95;29.86;34.35;;
67300;Laerm;57658;51.436;5.980;2024-01-11T00:43:41;32.19;30.54;34.56;;
67300;Laerm;57658;51.436;5.980;2024-01-11T00:43:52;32.22;30.22;34.54;;
67300;Laerm;57658;51.436;5.980;2024-01-11T00:44:02;32.33;30.20;34.80;;
67300;Laerm;57658;51.436;5.980;2024-01-11T00:44:12;32.09;30.18;34.49;;
67300;Laerm;57658;51.436;5.980;2024-01-11T00:44:22;32.02;30.34;33.85;;
67300;Laerm;57658;51.436;5.980;2024-01-11T00:44:33;31.76;29.67;34.66;;
67300;Laerm;57658;51.436;5.980;2024-01-11T00:44:43;31.21;28.94;33.16;;
67300;Laerm;57658;51.436;5.980;2024-01-11T00:44:55;31.09;29.01;32.47;;
67300;Laerm;57658;51.436;5.980;2024-01-11T00:45:05;31.16;29.50;33.09;;
67300;Laerm;57658;51.436;5.980;2024-01-11T00:45:15;31.08;29.81;32.97;;
67300;Laerm;57658;51.436;5.980;2024-01-11T00:45:26;31.13;29.50;32.81;;
67300;Laerm;57658;51.436;5.980;2024-01-11T00:45:36;31.00;29.41;33.19;;
67300;Laerm;57658;51.436;5.980;2024-01-11T00:45:47;31.07;29.25;32.59;;
67300;Laerm;57658;51.436;5.980;2024-01-11T00:45:57;31.13;29.35;32.98;;
67300;Laerm;57658;51.436;5.980;2024-01-11T00:46:07;31.16;29.56;32.96;;
67300;Laerm;57658;51.436;5.980;2024-01-11T00:46:17;31.11;29.27;32.59;;
67300;Laerm;57658;51.436;5.980;2024-01-11T00:46:28;30.99;29.56;32.73;;
67300;Laerm;57658;51.436;5.980;2024-01-11T00:46:39;31.18;29.64;32.91;;
67300;Laerm;57658;51.436;5.980;2024-01-11T00:46:49;31.25;29.79;32.75;;
67300;Laerm;57658;51.436;5.980;2024-01-11T00:46:59;31.09;29.53;32.52;;
67300;Laerm;57658;51.436;5.980;2024-01-11T00:47:10;31.11;29.47;32.97;;
67300;Laerm;57658;51.436;5.980;2024-01-11T00:47:20;31.43;29.48;34.28;;
67300;Laerm;57658;51.436;5.980;2024-01-11T00:47:31;30.79;29.06;32.82;;
67300;Laerm;57658;51.436;5.980;2024-01-11T00:47:41;70.57;29.46;80.01;;
67300;Laerm;57658;51.436;5.980;2024-01-11T00:47:51;74.49;63.25;79.38;;
67300;Laerm;57658;51.436;5.980;2024-01-11T00:48:01;60.09;56.73;62.71;;
67300;Laerm;57658;51.436;5.980;2024-01-11T00:48:12;60.21;56.40;62.22;;
67300;Laerm;57658;51.436;5.980;2024-01-11T00:48:22;61.34;56.76;66.54;;
67300;Laerm;57658;51.436;5.980;2024-01-11T00:48:33;84.72;66.09;91.77;;
67300;Laerm;57658;51.436;5.980;2024-01-11T00:48:43;85.39;81.18;91.46;;
67300;Laerm;57658;51.436;5.980;2024-01-11T00:48:53;81.85;63.32;90.23;;
67300;Laerm;57658;51.436;5.980;2024-01-11T00:49:04;58.93;51.07;66.97;;
67300;Laerm;57658;51.436;5.980;2024-01-11T00:49:14;50.11;43.36;57.94;;
67300;Laerm;57658;51.436;5.980;2024-01-11T00:49:24;43.86;40.79;48.15;;
67300;Laerm;57658;51.436;5.980;2024-01-11T00:49:34;40.85;35.61;45.93;;
67300;Laerm;57658;51.436;5.980;2024-01-11T00:49:45;38.57;34.73;42.77;;
67300;Laerm;57658;51.436;5.980;2024-01-11T00:49:55;40.54;37.50;44.22;;
67300;Laerm;57658;51.436;5.980;2024-01-11T00:50:06;38.12;35.19;40.65;;
67300;Laerm;57658;51.436;5.980;2024-01-11T00:50:17;37.04;33.48;40.26;;
67300;Laerm;57658;51.436;5.980;2024-01-11T00:50:27;36.97;33.20;41.25;;
67300;Laerm;57658;51.436;5.980;2024-01-11T00:50:37;34.70;32.04;40.35;;
67300;Laerm;57658;51.436;5.980;2024-01-11T00:50:47;34.68;30.45;48.32;;
67300;Laerm;57658;51.436;5.980;2024-01-11T00:50:58;32.58;30.41;34.20;;
67300;Laerm;57658;51.436;5.980;2024-01-11T00:51:08;32.29;30.71;35.32;;
67300;Laerm;57658;51.436;5.980;2024-01-11T00:51:18;32.46;30.44;34.29;;
67300;Laerm;57658;51.436;5.980;2024-01-11T00:51:29;32.84;30.92;34.94;;
67300;Laerm;57658;51.436;5.980;2024-01-11T00:51:39;32.14;30.40;33.56;;
67300;Laerm;57658;51.436;5.980;2024-01-11T00:51:49;33.07;30.93;36.54;;
67300;Laerm;57658;51.436;5.980;2024-01-11T00:51:59;33.18;30.80;35.71;;
67300;Laerm;57658;51.436;5.980;2024-01-11T00:52:10;32.61;30.78;35.21;;
67300;Laerm;57658;51.436;5.980;2024-01-11T00:52:23;31.98;30.36;34.12;;
67300;Laerm;57658;51.436;5.980;2024-01-11T00:52:34;31.39;29.53;34.62;;
67300;Laerm;57658;51.436;5.980;2024-01-11T00:52:44;31.23;29.43;33.86;;
67300;Laerm;57658;51.436;5.980;2024-01-11T00:52:54;31.30;29.30;33.50;;
67300;Laerm;57658;51.436;5.980;2024-01-11T00:53:04;31.48;29.50;35.66;;
67300;Laerm;57658;51.436;5.980;2024-01-11T00:53:15;31.44;29.68;33.51;;
67300;Laerm;57658;51.436;5.980;2024-01-11T00:53:25;30.91;29.59;32.22;;
67300;Laerm;57658;51.436;5.980;2024-01-11T00:53:40;31.45;29.52;36.03;;
67300;Laerm;57658;51.436;5.980;2024-01-11T00:53:50;31.38;29.14;35.38;;
67300;Laerm;57658;51.436;5.980;2024-01-11T00:54:01;31.34;29.96;33.06;;
67300;Laerm;57658;51.436;5.980;2024-01-11T00:54:11;31.39;29.91;33.03;;
67300;Laerm;57658;51.436;5.980;2024-01-11T00:54:21;31.33;29.93;33.71;;
67300;Laerm;57658;51.436;5.980;2024-01-11T00:54:31;31.09;29.64;32.97;;
67300;Laerm;57658;51.436;5.980;2024-01-11T00:54:42;31.34;29.64;34.24;;
67300;Laerm;57658;51.436;5.980;2024-01-11T00:54:52;31.07;29.43;35.05;;
67300;Laerm;57658;51.436;5.980;2024-01-11T00:55:02;31.19;29.33;36.35;;
67300;Laerm;57658;51.436;5.980;2024-01-11T00:55:13;30.98;29.44;33.25;;
67300;Laerm;57658;51.436;5.980;2024-01-11T00:55:23;30.89;28.97;32.40;;
67300;Laerm;57658;51.436;5.980;2024-01-11T00:55:34;31.12;29.50;33.49;;
67300;Laerm;57658;51.436;5.980;2024-01-11T00:55:45;31.01;29.47;32.60;;
67300;Laerm;57658;51.436;5.980;2024-01-11T00:55:55;31.46;29.63;34.94;;
67300;Laerm;57658;51.436;5.980;2024-01-11T00:56:05;31.01;29.08;33.76;;
67300;Laerm;57658;51.436;5.980;2024-01-11T00:56:18;31.07;29.12;35.23;;
67300;Laerm;57658;51.436;5.980;2024-01-11T00:56:29;31.42;29.94;33.64;;
67300;Laerm;57658;51.436;5.980;2024-01-11T00:56:39;31.39;29.39;33.95;;
67300;Laerm;57658;51.436;5.980;2024-01-11T00:56:49;31.19;29.76;33.22;;
67300;Laerm;57658;51.436;5.980;2024-01-11T00:57:00;31.34;29.20;35.74;;
67300;Laerm;57658;51.436;5.980;2024-01-11T00:57:10;31.60;29.69;33.67;;
67300;Laerm;57658;51.436;5.980;2024-01-11T00:57:20;31.56;29.96;33.12;;
67300;Laerm;57658;51.436;5.980;2024-01-11T00:57:31;31.81;30.00;34.32;;
67300;Laerm;57658;51.436;5.980;2024-01-11T00:57:41;31.71;30.24;33.15;;
67300;Laerm;57658;51.436;5.980;2024-01-11T00:57:51;31.84;30.00;34.10;;
67300;Laerm;57658;51.436;5.980;2024-01-11T00:58:01;31.46;29.76;32.86;;
67300;Laerm;57658;51.436;5.980;2024-01-11T00:58:12;31.23;29.89;32.85;;
67300;Laerm;57658;51.436;5.980;2024-01-11T00:58:22;31.50;29.77;34.03;;